Pierre, SD

11:31 AM CDT on September 21, 2014 (GMT -0500)
Chamberlain | Change Station
CLOSE
Current Station
Airport
Location: Chamberlain,
Elevation: 1693 ft
Nearby Weather Stations

Elev 1693 ft 43.77 °N, 99.32 °W | Updated 16 minutes ago

Clear
Clear
64 °F
Feels Like 64 °F
N
6
Wind Variable Wind from NNW

Today
High -- | Low -- °F
--% Chance of Precip.
Yesterday
High -- | Low -- °F
Precip. -- in
7:26 AM 7:39 PM
Waning Crescent, 6% visible
Pressure 30.31 in
Visibility 10.0 miles
Clouds Clear
Dew Point 44 °F
Humidity 49%
Rainfall 0.00 in
Snow Depth 0 in
UV 5 out of 12
Pollen 5.20 out of 12
Air Quality Not available.
Flu Activity Not available.
METAR K9V9 211615Z AUTO 33005KT 10SM CLR 18/07 A3031 RMK AO2 T01790069

More Conditions Fewer Conditions

Pressure 30.31 in
Visibility 10.0 miles
Clouds Clear
Dew Point 44 °F
Humidity 49%
Rainfall 0.00 in
Snow Depth 0 in
UV 5 out of 12
Pollen 5.20 out of 12
Air Quality Not available.
Flu Activity Not available.
METAR K9V9 211615Z AUTO 33005KT 10SM CLR 18/07 A3031 RMK AO2 T01790069

More Conditions Fewer Conditions

10-Day Weather Forecast

Almanac

Astronomy

Sep. 21, 2014 Rise Set
Actual Time 7:26 AM CDT 7:39 PM CDT
Civil Twilight 6:57 AM CDT 8:08 PM CDT
Nautical Twilight 6:23 AM CDT 8:43 PM CDT
Astronomical Twilight 5:48 AM CDT 9:17 PM CDT
Moon 4:57 AM CDT 6:20 PM CDT
Length of Visible Light 13h 11m
Length of Day
12h 13m
Tomorrow will be 3m 3s shorter.
Waning Crescent, 6% of the Moon is Illuminated
Today
Waning Crescent
Sep 24
New
Oct 1
First Quarter
Oct 8
Full
Oct 15
Last Quarter

Today's Extremes

State Highs State Lows

Community

WunderPhotos

Upload Photos

1,755,186 photos uploaded!

Nearby

Snow Depth

Station Depth Elevation
Blind Park 0 in 6890 ft

Earthquake Activity

City Distance Mag. Time & Date
No recent earthquake activity has been reported nearby.
Minimum magnitude displayed is 2.5.

Coastal Water Temperatures

Place Temperature
No Stations Reporting

Nearby Weather Stations